Terminal Aerodrome Forecast
Issued by NWS Mt. Holly, NJ

Home | Current Version | Previous Version | Text Only | Print | Product List | Glossary On
Versions: 1 2 3 4 5 6 7 8 9 10 11 12 13 14 15 16 17 18 19 20 21 22 23 24 25 26 27 28 29
000
FTUS41 KPHI 301136
TAFPHL
TAF
KPHL 301136Z 3012/0118 16006KT P6SM BKN080
     FM301700 18011G20KT P6SM SHRA SCT035 BKN050
      TEMPO 3021/3024 5SM TSRA BKN050CB
     FM010000 17008KT P6SM SHRA SCT035 BKN050
      TEMPO 0100/0103 5SM TSRA BR BKN035CB
     FM010500 17006KT 4SM -SHRA BR BKN035 OVC050
     FM010900 21004KT 4SM -SHRA BR BKN035 OVC050
     FM011500 24007KT P6SM SCT050=

USA.gov is the U.S. government's official web portal to all federal, state and local government web resources and services.